松山空港の過去48時間の天気

松山空港 (Matsuyama)

現在時刻: 7/22 11:23 JST (7/22 02:23 UTC) 以下の時間は現地時間です。

過去48時間のMETAR気象情報
時間 風向 風速(m/s) 視程 気温(℃) 湿度(%) 気圧(hPa) 天気現象
22 11:00 北北西 2 10km以上 26 94 1009
22 10:00 不定 1 8000m 24 100 1009
22 09:36 西南西 2 8000m 24 100 1009 弱いしゅう雨
22 09:27 西南西 2 3500m 24 100 1009 しゅう雨 もや
22 09:14 西 2 3000m 24 100 1009 弱いしゅう雨 もや
22 09:00 西 2 6000m 25 94 1009 弱いしゅう雨
22 08:00 2 6000m 25 100 1009 弱いしゅう雨
22 07:00 3 10km以上 25 94 1009 弱いしゅう雨
22 06:10 2 10km以上 24 100 1008
21 21:00 3 10km以上 25 89 1010
21 20:00 西北西 3 10km以上 25 89 1009
21 19:00 南南東 4 10km以上 29 74 1008
21 18:00 4 10km以上 28 84 1008 弱いしゅう雨
21 17:00 南西 2 10km以上 26 89 1009 弱いしゅう雨
21 16:22 南南西 4 7000m 27 89 1009 弱いしゅう雨
21 16:11 南南西 3 4500m 28 84 1009 しゅう雨 もや
21 16:00 西南西 2 10km以上 27 84 1009 弱いしゅう雨
21 15:00 不定 1 10km以上 29 74 1009 周辺でしゅう雨
21 14:00 南西 3 10km以上 30 70 1009 弱いしゅう雨
21 13:00 5 10km以上 31 70 1009
21 12:00 3 10km以上 29 79 1009 弱いしゅう雨
21 11:00 南西 3 10km以上 26 89 1010 弱いしゅう雨
21 10:00 4 10km以上 29 74 1010
21 09:00 3 10km以上 27 84 1009 弱いしゅう雨
21 08:40 南西 3 10km以上 26 89 1009 弱いしゅう雨
21 08:23 5 5000m 27 84 1010 しゅう雨 もや
21 08:00 3 10km以上 29 74 1009 弱いしゅう雨
21 07:00 南南西 3 10km以上 29 74 1009 弱いしゅう雨
21 06:10 南南東 2 10km以上 27 84 1008
20 21:00 南南東 4 10km以上 29 74 1009 弱いしゅう雨
20 20:46 南南東 3 10km以上 28 79 1009 弱いしゅう雨
20 20:19 南東 7 10km以上 28 74 1009 しゅう雨
20 20:00 南東 7 10km以上 30 66 1008 弱いしゅう雨
20 19:00 3 10km以上 30 66 1008
20 18:00 6 10km以上 31 62 1008
20 17:00 西北西 2 10km以上 28 74 1008
20 16:00 南東 5 10km以上 32 63 1008
20 15:00 東南東 7 10km以上 32 63 1009
20 14:03 3 10km以上 32 67 1009
20 14:00 3 10km以上 30 75 1009
20 13:00 北北西 4 10km以上 30 75 1009
20 12:09 北北西 3 10km以上 33 63 1010
20 12:00 4 10km以上 31 66 1010
RJOM 220200Z 34004KT 290V020 9999 FEW010 SCT050 BKN/// 26/25 Q1009
RJOM 220100Z VRB02KT 8000 SCT003 BKN015 BKN045 24/24 Q1009
RJOM 220036Z 24003KT 190V310 8000 -SHRA FEW003 SCT015 BKN025 24/24 Q1009 RMK 1ST003 4CU015 6CU025 A2980
RJOM 220027Z 24004KT 200V270 3500 SHRA BR FEW003 SCT015 BKN030 24/24 Q1009 RMK 1ST003 4CU015 6CU030 A2980
RJOM 220014Z 27004KT 230V300 3000 -SHRA BR FEW005 SCT015 BKN030 24/24 Q1009 RMK 1ST005 4CU015 6CU030 A2980
RJOM 220000Z 28003KT 210V330 6000 -SHRA FEW005 SCT020 BKN040 25/24 Q1009
RJOM 212300Z 01003KT 330V040 6000 -SHRA FEW007 SCT020 BKN035 25/25 Q1009
RJOM 212200Z 36006KT 9999 -SHRA FEW020 SCT035 BKN050 25/24 Q1009
RJOM 212110Z 35003KT 9999 FEW025 SCT035 BKN050 24/24 Q1008 RMK 1CU025 3CU035 5SC050 A2979
RJOM 211200Z 36005KT 9999 FEW020 SCT070 BKN160 25/23 Q1010
RJOM 211100Z 30005KT 9999 FEW020 SCT070 BKN180 25/23 Q1009
RJOM 211000Z 16007KT 9999 FEW015 SCT100 BKN170 29/24 Q1008
RJOM 210900Z 17008KT 9999 -SHRA FEW015 SCT040 BKN150 28/25 Q1008
RJOM 210800Z 22004KT 160V270 9999 -SHRA FEW010 SCT025 BKN130 26/24 Q1009
RJOM 210722Z 20008KT 170V230 7000 -SHRA FEW025 SCT040 BKN080 27/25 Q1009 RMK 1CU025 3CU040 5AC080 A2980
RJOM 210711Z 20005KT 150V250 4500 SHRA BR FEW025 FEW030CB SCT040 BKN060 28/25 Q1009 RMK 1CU025 1CB030 3CU040 5SC060 A2980 9999NW CB 5KM SE MOV NE
RJOM 210700Z 25004KT 210V290 9999 -SHRA FEW025 FEW030CB SCT040 BKN060 27/24 Q1009
RJOM 210600Z VRB02KT 9999 VCSH FEW025 SCT040 BKN050 29/24 Q1009
RJOM 210500Z 22006KT 9999 -SHRA FEW025 SCT040 BKN050 30/24 Q1009
RJOM 210400Z 19010KT 9999 FEW025 SCT045 BKN150 31/25 Q1009
RJOM 210300Z 19006KT 9999 -SHRA FEW025 BKN035 BKN050 29/25 Q1009
RJOM 210200Z 22005KT 130V260 9999 -SHRA FEW025 BKN035 BKN045 26/24 Q1010
RJOM 210100Z 19007KT 9999 FEW025 BKN050 BKN100 29/24 Q1010
RJOM 210000Z 18006KT 160V220 9999 -SHRA FEW020 SCT030 BKN050 27/24 Q1009
RJOM 202340Z 23005KT 9999 -SHRA FEW020 BKN045 BKN090 26/24 Q1009 RMK 1CU020 5SC045 6AC090 A2982
RJOM 202323Z 19009KT 5000 SHRA BR FEW020 SCT030 BKN040 27/24 Q1010 RMK 1CU020 4CU030 6SC040 A2982
RJOM 202300Z 18006KT 140V220 9999 -SHRA FEW020 BKN045 BKN070 29/24 Q1009
RJOM 202200Z 20005KT 170V240 9999 -SHRA FEW025 BKN045 BKN120 29/24 Q1009
RJOM 202110Z 15004KT 110V190 9999 FEW025 SCT070 BKN150 27/24 Q1008 RMK 1CU025 4AC070 6AC150 A2979
RJOM 201200Z 15007KT 120V180 9999 -SHRA FEW020 SCT040 BKN060 29/24 Q1009
RJOM 201146Z 16005KT 120V190 9999 -SHRA FEW020 SCT040 BKN080 28/24 Q1009 RMK 1CU020 3CU040 5AC080 A2982
RJOM 201119Z 14013KT 9999 SHRA FEW015 SCT030 BKN050 28/23 Q1009 RMK 1CU015 4CU030 5SC050 A2979
RJOM 201100Z 14014KT 110V170 9999 -SHRA FEW020 SCT035 BKN050 30/23 Q1008
RJOM 201000Z 17006KT 090V200 9999 FEW020 SCT040 BKN140 30/23 Q1008
RJOM 200900Z 18011KT 9999 FEW025 SCT040 BKN140 31/23 Q1008
RJOM 200800Z 30004KT 240V340 9999 FEW025 SCT050 BKN130 28/23 Q1008
RJOM 200700Z 13009KT 9999 FEW025 SCT040 BKN/// 32/24 Q1008
RJOM 200600Z 12014KT 9999 FEW020 SCT040 BKN060 32/24 Q1009
RJOM 200503Z VRB06KT 9999 FEW020 SCT040 BKN060 32/25 Q1009 RMK 1CU020 4CU040 5SC060 A2982
RJOM 200500Z VRB05KT 9999 FEW020 SCT040 BKN060 30/25 Q1009
RJOM 200400Z 34007KT 9999 FEW020 SCT040 BKN130 30/25 Q1009
RJOM 200309Z 33005KT 270V020 9999 FEW025 SCT180 BKN/// 33/25 Q1010 RMK 1CU025 3AC180 A2983
RJOM 200300Z 35008KT 9999 FEW025 SCT180 BKN/// 31/24 Q1010